sensor_id;sensor_type;location;lat;lon;timestamp;temperature;humidity
72288;SHT31;60221;45.696;16.076;2022-11-04T00:02:01;15.13;70.43
72288;SHT31;60221;45.696;16.076;2022-11-04T00:04:29;15.07;69.42
72288;SHT31;60221;45.696;16.076;2022-11-04T00:06:56;15.00;69.57
72288;SHT31;60221;45.696;16.076;2022-11-04T00:09:28;14.96;69.51
72288;SHT31;60221;45.696;16.076;2022-11-04T00:11:56;14.96;69.83
72288;SHT31;60221;45.696;16.076;2022-11-04T00:14:41;14.96;70.26
72288;SHT31;60221;45.696;16.076;2022-11-04T00:17:11;14.95;70.33
72288;SHT31;60221;45.696;16.076;2022-11-04T00:19:51;14.99;71.09
72288;SHT31;60221;45.696;16.076;2022-11-04T00:22:38;15.10;70.87
72288;SHT31;60221;45.696;16.076;2022-11-04T00:25:22;15.16;70.79
72288;SHT31;60221;45.696;16.076;2022-11-04T00:28:17;15.23;70.54
72288;SHT31;60221;45.696;16.076;2022-11-04T00:31:02;15.26;70.23
72288;SHT31;60221;45.696;16.076;2022-11-04T00:33:49;15.26;69.80
72288;SHT31;60221;45.696;16.076;2022-11-04T00:36:15;15.29;69.84
72288;SHT31;60221;45.696;16.076;2022-11-04T00:38:42;15.19;69.57
72288;SHT31;60221;45.696;16.076;2022-11-04T00:41:08;15.07;69.47
72288;SHT31;60221;45.696;16.076;2022-11-04T00:43:36;14.98;69.63
72288;SHT31;60221;45.696;16.076;2022-11-04T00:46:02;14.89;70.07
72288;SHT31;60221;45.696;16.076;2022-11-04T00:48:28;14.83;70.26
72288;SHT31;60221;45.696;16.076;2022-11-04T00:50:54;14.88;71.03
72288;SHT31;60221;45.696;16.076;2022-11-04T00:53:20;14.99;71.28
72288;SHT31;60221;45.696;16.076;2022-11-04T00:55:46;15.02;70.88
72288;SHT31;60221;45.696;16.076;2022-11-04T00:58:12;15.03;70.88
72288;SHT31;60221;45.696;16.076;2022-11-04T01:00:38;15.06;70.95
72288;SHT31;60221;45.696;16.076;2022-11-04T01:03:04;15.06;70.68
72288;SHT31;60221;45.696;16.076;2022-11-04T01:05:30;15.03;70.61
72288;SHT31;60221;45.696;16.076;2022-11-04T01:07:56;15.05;70.69
72288;SHT31;60221;45.696;16.076;2022-11-04T01:10:22;14.91;70.08
72288;SHT31;60221;45.696;16.076;2022-11-04T01:12:51;14.72;70.01
72288;SHT31;60221;45.696;16.076;2022-11-04T01:15:18;14.60;70.37
72288;SHT31;60221;45.696;16.076;2022-11-04T01:17:44;14.51;70.48
72288;SHT31;60221;45.696;16.076;2022-11-04T01:20:11;14.44;70.77
72288;SHT31;60221;45.696;16.076;2022-11-04T01:22:38;14.57;72.21
72288;SHT31;60221;45.696;16.076;2022-11-04T01:25:07;14.82;72.04
72288;SHT31;60221;45.696;16.076;2022-11-04T01:27:33;14.79;70.48
72288;SHT31;60221;45.696;16.076;2022-11-04T01:30:00;14.61;70.30
72288;SHT31;60221;45.696;16.076;2022-11-04T01:32:27;14.49;70.68
72288;SHT31;60221;45.696;16.076;2022-11-04T01:34:53;14.45;70.82
72288;SHT31;60221;45.696;16.076;2022-11-04T01:37:19;14.34;71.16
72288;SHT31;60221;45.696;16.076;2022-11-04T01:39:45;14.28;71.56
72288;SHT31;60221;45.696;16.076;2022-11-04T01:42:13;14.24;71.65
72288;SHT31;60221;45.696;16.076;2022-11-04T01:44:54;14.19;72.01
72288;SHT31;60221;45.696;16.076;2022-11-04T01:47:48;14.13;72.04
72288;SHT31;60221;45.696;16.076;2022-11-04T01:50:21;14.07;72.32
72288;SHT31;60221;45.696;16.076;2022-11-04T01:52:56;14.05;72.91
72288;SHT31;60221;45.696;16.076;2022-11-04T01:55:31;14.19;73.69
72288;SHT31;60221;45.696;16.076;2022-11-04T01:58:03;14.15;73.20
72288;SHT31;60221;45.696;16.076;2022-11-04T02:00:30;14.09;73.04
72288;SHT31;60221;45.696;16.076;2022-11-04T02:03:17;14.02;73.21
72288;SHT31;60221;45.696;16.076;2022-11-04T02:05:45;13.96;72.92
72288;SHT31;60221;45.696;16.076;2022-11-04T02:08:13;13.86;72.98
72288;SHT31;60221;45.696;16.076;2022-11-04T02:10:46;13.82;73.36
72288;SHT31;60221;45.696;16.076;2022-11-04T02:13:12;13.82;73.45
72288;SHT31;60221;45.696;16.076;2022-11-04T02:16:55;13.78;73.66
72288;SHT31;60221;45.696;16.076;2022-11-04T02:19:06;13.80;74.02
72288;SHT31;60221;45.696;16.076;2022-11-04T02:27:49;13.83;74.33
72288;SHT31;60221;45.696;16.076;2022-11-04T02:30:17;13.82;74.38
72288;SHT31;60221;45.696;16.076;2022-11-04T02:33:16;13.83;74.41
72288;SHT31;60221;45.696;16.076;2022-11-04T02:35:42;13.88;74.40
72288;SHT31;60221;45.696;16.076;2022-11-04T02:41:13;13.88;74.02
72288;SHT31;60221;45.696;16.076;2022-11-04T02:43:58;13.83;73.76
72288;SHT31;60221;45.696;16.076;2022-11-04T02:46:37;13.69;73.34
72288;SHT31;60221;45.696;16.076;2022-11-04T02:49:56;13.65;73.15
72288;SHT31;60221;45.696;16.076;2022-11-04T02:52:15;13.58;73.33
72288;SHT31;60221;45.696;16.076;2022-11-04T02:54:37;13.54;73.68
72288;SHT31;60221;45.696;16.076;2022-11-04T02:57:07;13.51;74.25
72288;SHT31;60221;45.696;16.076;2022-11-04T02:59:46;13.47;74.44
72288;SHT31;60221;45.696;16.076;2022-11-04T03:02:21;13.45;74.65
72288;SHT31;60221;45.696;16.076;2022-11-04T03:04:50;13.37;74.10
72288;SHT31;60221;45.696;16.076;2022-11-04T03:07:26;13.45;75.24
72288;SHT31;60221;45.696;16.076;2022-11-04T03:09:54;13.51;74.76
72288;SHT31;60221;45.696;16.076;2022-11-04T03:12:25;13.44;74.41
72288;SHT31;60221;45.696;16.076;2022-11-04T03:14:58;13.41;74.11
72288;SHT31;60221;45.696;16.076;2022-11-04T03:17:41;13.38;74.54
72288;SHT31;60221;45.696;16.076;2022-11-04T03:20:21;13.44;75.35
72288;SHT31;60221;45.696;16.076;2022-11-04T03:22:49;13.50;75.16
72288;SHT31;60221;45.696;16.076;2022-11-04T03:25:15;13.41;74.84
72288;SHT31;60221;45.696;16.076;2022-11-04T03:28:03;13.73;77.15
72288;SHT31;60221;45.696;16.076;2022-11-04T03:30:37;14.24;76.39
72288;SHT31;60221;45.696;16.076;2022-11-04T03:33:57;14.24;74.31
72288;SHT31;60221;45.696;16.076;2022-11-04T03:36:23;14.12;72.84
72288;SHT31;60221;45.696;16.076;2022-11-04T03:38:51;14.21;73.70
72288;SHT31;60221;45.696;16.076;2022-11-04T03:41:33;14.12;72.27
72288;SHT31;60221;45.696;16.076;2022-11-04T03:43:59;13.88;71.78
72288;SHT31;60221;45.696;16.076;2022-11-04T03:46:25;13.66;71.84
72288;SHT31;60221;45.696;16.076;2022-11-04T03:48:52;13.54;72.28
72288;SHT31;60221;45.696;16.076;2022-11-04T03:51:19;13.44;72.53
72288;SHT31;60221;45.696;16.076;2022-11-04T03:53:46;13.41;72.86
72288;SHT31;60221;45.696;16.076;2022-11-04T03:59:28;13.45;73.73
72288;SHT31;60221;45.696;16.076;2022-11-04T04:01:58;13.51;74.09
72288;SHT31;60221;45.696;16.076;2022-11-04T04:04:35;13.45;73.36
72288;SHT31;60221;45.696;16.076;2022-11-04T04:07:19;13.40;73.93
72288;SHT31;60221;45.696;16.076;2022-11-04T04:09:54;13.40;74.29
72288;SHT31;60221;45.696;16.076;2022-11-04T04:12:34;13.35;74.23
72288;SHT31;60221;45.696;16.076;2022-11-04T04:15:20;13.35;74.47
72288;SHT31;60221;45.696;16.076;2022-11-04T04:18:07;13.33;74.51
72288;SHT31;60221;45.696;16.076;2022-11-04T04:20:37;13.34;74.58
72288;SHT31;60221;45.696;16.076;2022-11-04T04:23:17;13.31;74.50
72288;SHT31;60221;45.696;16.076;2022-11-04T04:26:06;13.30;74.49
72288;SHT31;60221;45.696;16.076;2022-11-04T04:28:54;13.34;74.89
72288;SHT31;60221;45.696;16.076;2022-11-04T04:31:24;13.35;74.71
72288;SHT31;60221;45.696;16.076;2022-11-04T04:34:09;13.34;74.59
72288;SHT31;60221;45.696;16.076;2022-11-04T04:36:50;13.33;74.90
72288;SHT31;60221;45.696;16.076;2022-11-04T04:39:20;13.33;75.35
72288;SHT31;60221;45.696;16.076;2022-11-04T04:42:07;13.28;75.63
72288;SHT31;60221;45.696;16.076;2022-11-04T04:44:53;13.31;76.00
72288;SHT31;60221;45.696;16.076;2022-11-04T04:47:40;13.33;76.11
72288;SHT31;60221;45.696;16.076;2022-11-04T04:50:08;13.34;76.12
72288;SHT31;60221;45.696;16.076;2022-11-04T04:52:43;13.37;76.28
72288;SHT31;60221;45.696;16.076;2022-11-04T04:55:10;13.35;76.32
72288;SHT31;60221;45.696;16.076;2022-11-04T04:57:37;13.38;76.28
72288;SHT31;60221;45.696;16.076;2022-11-04T05:00:07;13.41;75.95
72288;SHT31;60221;45.696;16.076;2022-11-04T05:02:34;13.44;76.30
72288;SHT31;60221;45.696;16.076;2022-11-04T05:05:00;13.45;76.47
72288;SHT31;60221;45.696;16.076;2022-11-04T05:07:26;13.42;76.58
72288;SHT31;60221;45.696;16.076;2022-11-04T05:09:52;13.44;76.57
72288;SHT31;60221;45.696;16.076;2022-11-04T05:12:18;13.47;76.49
72288;SHT31;60221;45.696;16.076;2022-11-04T05:14:44;13.51;76.54
72288;SHT31;60221;45.696;16.076;2022-11-04T05:17:10;13.47;76.35
72288;SHT31;60221;45.696;16.076;2022-11-04T05:19:37;13.48;76.52
72288;SHT31;60221;45.696;16.076;2022-11-04T05:22:03;13.48;76.49
72288;SHT31;60221;45.696;16.076;2022-11-04T05:24:30;13.52;76.48
72288;SHT31;60221;45.696;16.076;2022-11-04T05:26:56;13.54;76.31
72288;SHT31;60221;45.696;16.076;2022-11-04T05:29:22;13.48;76.26
72288;SHT31;60221;45.696;16.076;2022-11-04T05:31:48;13.47;76.37
72288;SHT31;60221;45.696;16.076;2022-11-04T05:34:14;13.50;76.41
72288;SHT31;60221;45.696;16.076;2022-11-04T05:36:41;13.50;76.28
72288;SHT31;60221;45.696;16.076;2022-11-04T05:39:12;13.54;76.34
72288;SHT31;60221;45.696;16.076;2022-11-04T05:41:38;13.52;76.39
72288;SHT31;60221;45.696;16.076;2022-11-04T05:44:04;13.55;76.34
72288;SHT31;60221;45.696;16.076;2022-11-04T05:46:31;13.55;76.34
72288;SHT31;60221;45.696;16.076;2022-11-04T05:48:57;13.55;76.42
72288;SHT31;60221;45.696;16.076;2022-11-04T05:51:30;13.58;76.42
72288;SHT31;60221;45.696;16.076;2022-11-04T05:53:56;13.58;76.45
72288;SHT31;60221;45.696;16.076;2022-11-04T05:56:22;13.59;76.32
72288;SHT31;60221;45.696;16.076;2022-11-04T05:58:49;13.57;76.28
72288;SHT31;60221;45.696;16.076;2022-11-04T06:01:30;13.62;76.57
72288;SHT31;60221;45.696;16.076;2022-11-04T06:03:58;13.66;76.52
72288;SHT31;60221;45.696;16.076;2022-11-04T06:06:29;13.68;76.54
72288;SHT31;60221;45.696;16.076;2022-11-04T06:08:56;13.69;76.29
72288;SHT31;60221;45.696;16.076;2022-11-04T06:11:25;13.69;76.16
72288;SHT31;60221;45.696;16.076;2022-11-04T06:13:53;13.69;76.12
72288;SHT31;60221;45.696;16.076;2022-11-04T06:16:20;13.68;76.09
72288;SHT31;60221;45.696;16.076;2022-11-04T06:18:47;13.65;76.23
72288;SHT31;60221;45.696;16.076;2022-11-04T06:23:54;13.62;76.36
72288;SHT31;60221;45.696;16.076;2022-11-04T06:26:26;13.64;76.41
72288;SHT31;60221;45.696;16.076;2022-11-04T06:28:52;13.65;76.54
72288;SHT31;60221;45.696;16.076;2022-11-04T06:31:19;13.65;76.54
72288;SHT31;60221;45.696;16.076;2022-11-04T06:33:47;13.66;76.44
72288;SHT31;60221;45.696;16.076;2022-11-04T06:36:16;13.66;76.53
72288;SHT31;60221;45.696;16.076;2022-11-04T06:38:42;13.66;76.27
72288;SHT31;60221;45.696;16.076;2022-11-04T06:41:15;13.68;76.32
72288;SHT31;60221;45.696;16.076;2022-11-04T06:43:41;13.69;76.28
72288;SHT31;60221;45.696;16.076;2022-11-04T06:48:56;13.69;76.28
72288;SHT31;60221;45.696;16.076;2022-11-04T06:51:24;13.66;76.24
72288;SHT31;60221;45.696;16.076;2022-11-04T06:53:50;13.68;76.30
72288;SHT31;60221;45.696;16.076;2022-11-04T06:56:16;13.68;76.24
72288;SHT31;60221;45.696;16.076;2022-11-04T06:58:42;13.65;76.23
72288;SHT31;60221;45.696;16.076;2022-11-04T07:01:09;13.68;76.44
72288;SHT31;60221;45.696;16.076;2022-11-04T07:03:35;13.69;76.31
72288;SHT31;60221;45.696;16.076;2022-11-04T07:06:09;13.70;76.42
72288;SHT31;60221;45.696;16.076;2022-11-04T07:08:36;13.69;76.61
72288;SHT31;60221;45.696;16.076;2022-11-04T07:11:03;13.70;76.52
72288;SHT31;60221;45.696;16.076;2022-11-04T07:13:30;13.70;76.23
72288;SHT31;60221;45.696;16.076;2022-11-04T07:15:56;13.72;76.30
72288;SHT31;60221;45.696;16.076;2022-11-04T07:18:23;13.69;76.17
72288;SHT31;60221;45.696;16.076;2022-11-04T07:20:49;13.69;76.18
72288;SHT31;60221;45.696;16.076;2022-11-04T07:23:15;13.66;76.17
72288;SHT31;60221;45.696;16.076;2022-11-04T07:25:41;13.65;76.26
72288;SHT31;60221;45.696;16.076;2022-11-04T07:28:08;13.62;76.30
72288;SHT31;60221;45.696;16.076;2022-11-04T07:30:35;13.62;76.36
72288;SHT31;60221;45.696;16.076;2022-11-04T07:33:01;13.62;76.40
72288;SHT31;60221;45.696;16.076;2022-11-04T07:35:27;13.64;76.46
72288;SHT31;60221;45.696;16.076;2022-11-04T07:37:54;13.64;76.59
72288;SHT31;60221;45.696;16.076;2022-11-04T07:40:20;13.66;76.66
72288;SHT31;60221;45.696;16.076;2022-11-04T07:42:46;13.68;76.57
72288;SHT31;60221;45.696;16.076;2022-11-04T07:45:14;13.68;76.54
72288;SHT31;60221;45.696;16.076;2022-11-04T07:47:41;13.72;76.65
72288;SHT31;60221;45.696;16.076;2022-11-04T07:50:08;13.72;76.64
72288;SHT31;60221;45.696;16.076;2022-11-04T07:52:34;13.76;76.78
72288;SHT31;60221;45.696;16.076;2022-11-04T07:55:00;13.78;76.64
72288;SHT31;60221;45.696;16.076;2022-11-04T07:57:28;13.82;76.64
72288;SHT31;60221;45.696;16.076;2022-11-04T07:59:54;13.85;76.51
72288;SHT31;60221;45.696;16.076;2022-11-04T08:02:21;13.86;76.42
72288;SHT31;60221;45.696;16.076;2022-11-04T08:04:47;13.89;76.13
72288;SHT31;60221;45.696;16.076;2022-11-04T08:07:13;13.92;76.15
72288;SHT31;60221;45.696;16.076;2022-11-04T08:09:39;13.90;76.23
72288;SHT31;60221;45.696;16.076;2022-11-04T08:12:06;13.93;76.46
72288;SHT31;60221;45.696;16.076;2022-11-04T08:14:32;13.96;76.48
72288;SHT31;60221;45.696;16.076;2022-11-04T08:16:58;13.97;76.58
72288;SHT31;60221;45.696;16.076;2022-11-04T08:19:25;13.97;76.49
72288;SHT31;60221;45.696;16.076;2022-11-04T08:21:51;13.99;76.53
72288;SHT31;60221;45.696;16.076;2022-11-04T08:24:17;14.00;76.57
72288;SHT31;60221;45.696;16.076;2022-11-04T08:26:43;14.06;76.78
72288;SHT31;60221;45.696;16.076;2022-11-04T08:29:10;14.07;76.80
72288;SHT31;60221;45.696;16.076;2022-11-04T08:31:37;14.09;76.53
72288;SHT31;60221;45.696;16.076;2022-11-04T08:34:04;14.12;76.65
72288;SHT31;60221;45.696;16.076;2022-11-04T08:36:35;14.17;76.66
72288;SHT31;60221;45.696;16.076;2022-11-04T08:39:04;14.23;76.69
72288;SHT31;60221;45.696;16.076;2022-11-04T08:41:32;14.26;76.47
72288;SHT31;60221;45.696;16.076;2022-11-04T08:43:59;14.30;76.84
72288;SHT31;60221;45.696;16.076;2022-11-04T08:46:34;14.33;76.76
72288;SHT31;60221;45.696;16.076;2022-11-04T08:49:01;14.41;76.59
72288;SHT31;60221;45.696;16.076;2022-11-04T08:51:30;14.34;75.98
72288;SHT31;60221;45.696;16.076;2022-11-04T08:53:57;14.27;75.98
72288;SHT31;60221;45.696;16.076;2022-11-04T08:56:30;14.16;75.90
72288;SHT31;60221;45.696;16.076;2022-11-04T08:58:58;14.10;76.01
72288;SHT31;60221;45.696;16.076;2022-11-04T09:01:27;14.05;76.47
72288;SHT31;60221;45.696;16.076;2022-11-04T09:03:54;14.09;76.92
72288;SHT31;60221;45.696;16.076;2022-11-04T09:06:31;14.17;77.07
72288;SHT31;60221;45.696;16.076;2022-11-04T09:08:57;14.20;77.05
72288;SHT31;60221;45.696;16.076;2022-11-04T09:11:25;14.26;77.11
72288;SHT31;60221;45.696;16.076;2022-11-04T09:13:51;14.28;77.04
72288;SHT31;60221;45.696;16.076;2022-11-04T09:16:18;14.33;77.02
72288;SHT31;60221;45.696;16.076;2022-11-04T09:18:44;14.38;77.14
72288;SHT31;60221;45.696;16.076;2022-11-04T09:21:10;14.44;77.19
72288;SHT31;60221;45.696;16.076;2022-11-04T09:23:37;14.49;77.21
72288;SHT31;60221;45.696;16.076;2022-11-04T09:26:12;14.54;77.16
72288;SHT31;60221;45.696;16.076;2022-11-04T09:28:38;14.62;77.20
72288;SHT31;60221;45.696;16.076;2022-11-04T09:31:09;14.64;77.19
72288;SHT31;60221;45.696;16.076;2022-11-04T09:33:36;14.68;77.14
72288;SHT31;60221;45.696;16.076;2022-11-04T09:36:02;14.71;77.20
72288;SHT31;60221;45.696;16.076;2022-11-04T09:38:30;14.75;77.19
72288;SHT31;60221;45.696;16.076;2022-11-04T09:40:58;14.81;77.21
72288;SHT31;60221;45.696;16.076;2022-11-04T09:43:37;14.85;76.92
72288;SHT31;60221;45.696;16.076;2022-11-04T09:46:03;14.70;76.73
72288;SHT31;60221;45.696;16.076;2022-11-04T09:48:49;14.61;76.70
72288;SHT31;60221;45.696;16.076;2022-11-04T09:51:19;14.57;76.75
72288;SHT31;60221;45.696;16.076;2022-11-04T09:53:50;14.57;77.20
72288;SHT31;60221;45.696;16.076;2022-11-04T09:56:22;14.64;77.62
72288;SHT31;60221;45.696;16.076;2022-11-04T09:58:50;14.67;77.14
72288;SHT31;60221;45.696;16.076;2022-11-04T10:01:30;14.62;77.24
72288;SHT31;60221;45.696;16.076;2022-11-04T10:04:35;14.62;77.20
72288;SHT31;60221;45.696;16.076;2022-11-04T10:12:52;14.88;77.10
72288;SHT31;60221;45.696;16.076;2022-11-04T10:18:34;15.09;77.08
72288;SHT31;60221;45.696;16.076;2022-11-04T10:26:41;15.43;77.07
72288;SHT31;60221;45.696;16.076;2022-11-04T10:29:15;15.56;77.07
72288;SHT31;60221;45.696;16.076;2022-11-04T10:31:45;15.67;76.77
72288;SHT31;60221;45.696;16.076;2022-11-04T10:37:11;15.98;76.95
72288;SHT31;60221;45.696;16.076;2022-11-04T10:39:44;16.15;76.38
72288;SHT31;60221;45.696;16.076;2022-11-04T10:42:16;16.33;76.35
72288;SHT31;60221;45.696;16.076;2022-11-04T10:44:45;16.54;76.27
72288;SHT31;60221;45.696;16.076;2022-11-04T10:47:34;16.72;75.94
72288;SHT31;60221;45.696;16.076;2022-11-04T10:52:48;17.05;75.06
72288;SHT31;60221;45.696;16.076;2022-11-04T10:55:35;17.14;74.67
72288;SHT31;60221;45.696;16.076;2022-11-04T10:58:02;17.22;74.52
72288;SHT31;60221;45.696;16.076;2022-11-04T11:00:38;17.27;73.99
72288;SHT31;60221;45.696;16.076;2022-11-04T11:03:33;17.35;73.86
72288;SHT31;60221;45.696;16.076;2022-11-04T11:06:28;17.43;73.56
72288;SHT31;60221;45.696;16.076;2022-11-04T11:09:13;17.52;73.34
72288;SHT31;60221;45.696;16.076;2022-11-04T11:11:48;17.57;73.15
72288;SHT31;60221;45.696;16.076;2022-11-04T11:14:32;17.64;72.78
72288;SHT31;60221;45.696;16.076;2022-11-04T11:17:21;18.00;72.84
72288;SHT31;60221;45.696;16.076;2022-11-04T11:19:57;18.25;72.46
72288;SHT31;60221;45.696;16.076;2022-11-04T11:22:40;18.32;71.33
72288;SHT31;60221;45.696;16.076;2022-11-04T11:25:30;18.49;70.83
72288;SHT31;60221;45.696;16.076;2022-11-04T11:28:04;18.82;70.86
72288;SHT31;60221;45.696;16.076;2022-11-04T11:30:36;18.94;69.76
72288;SHT31;60221;45.696;16.076;2022-11-04T11:33:17;19.14;69.46
72288;SHT31;60221;45.696;16.076;2022-11-04T11:36:08;19.53;68.33
72288;SHT31;60221;45.696;16.076;2022-11-04T11:41:20;20.52;65.81
72288;SHT31;60221;45.696;16.076;2022-11-04T11:43:51;21.09;65.69
72288;SHT31;60221;45.696;16.076;2022-11-04T11:46:29;21.52;63.62
72288;SHT31;60221;45.696;16.076;2022-11-04T11:49:00;21.68;61.67
72288;SHT31;60221;45.696;16.076;2022-11-04T11:51:34;21.85;60.72
72288;SHT31;60221;45.696;16.076;2022-11-04T11:54:28;21.99;59.24
72288;SHT31;60221;45.696;16.076;2022-11-04T11:56:54;21.66;58.47
72288;SHT31;60221;45.696;16.076;2022-11-04T12:02:54;20.63;58.94
72288;SHT31;60221;45.696;16.076;2022-11-04T12:05:29;20.23;59.54
72288;SHT31;60221;45.696;16.076;2022-11-04T12:13:58;19.48;62.22
72288;SHT31;60221;45.696;16.076;2022-11-04T12:16:48;20.35;67.05
72288;SHT31;60221;45.696;16.076;2022-11-04T12:22:02;21.49;60.42
72288;SHT31;60221;45.696;16.076;2022-11-04T12:27:22;21.21;59.00
72288;SHT31;60221;45.696;16.076;2022-11-04T12:30:10;20.89;58.27
72288;SHT31;60221;45.696;16.076;2022-11-04T12:35:53;19.88;60.06
72288;SHT31;60221;45.696;16.076;2022-11-04T12:38:47;19.55;62.06
72288;SHT31;60221;45.696;16.076;2022-11-04T12:44:07;19.46;64.19
72288;SHT31;60221;45.696;16.076;2022-11-04T12:46:52;19.83;63.45
72288;SHT31;60221;45.696;16.076;2022-11-04T12:52:17;19.77;62.86
72288;SHT31;60221;45.696;16.076;2022-11-04T13:01:00;19.90;63.04
72288;SHT31;60221;45.696;16.076;2022-11-04T13:03:28;19.98;63.13
72288;SHT31;60221;45.696;16.076;2022-11-04T13:06:18;20.01;62.82
72288;SHT31;60221;45.696;16.076;2022-11-04T13:09:01;20.10;62.72
72288;SHT31;60221;45.696;16.076;2022-11-04T13:15:01;20.08;62.43
72288;SHT31;60221;45.696;16.076;2022-11-04T13:16:52;20.10;62.82
72288;SHT31;60221;45.696;16.076;2022-11-04T13:19:29;20.11;62.31
72288;SHT31;60221;45.696;16.076;2022-11-04T13:22:02;20.13;62.65
72288;SHT31;60221;45.696;16.076;2022-11-04T13:24:37;20.14;62.71
72288;SHT31;60221;45.696;16.076;2022-11-04T13:27:13;20.07;62.73
72288;SHT31;60221;45.696;16.076;2022-11-04T13:29:39;20.04;62.78
72288;SHT31;60221;45.696;16.076;2022-11-04T13:32:26;20.08;62.98
72288;SHT31;60221;45.696;16.076;2022-11-04T13:38:02;20.06;62.71
72288;SHT31;60221;45.696;16.076;2022-11-04T13:43:26;19.98;63.00
72288;SHT31;60221;45.696;16.076;2022-11-04T13:45:58;19.87;63.41
72288;SHT31;60221;45.696;16.076;2022-11-04T13:48:29;19.76;63.59
72288;SHT31;60221;45.696;16.076;2022-11-04T13:51:09;19.63;63.66
72288;SHT31;60221;45.696;16.076;2022-11-04T13:53:51;19.53;63.83
72288;SHT31;60221;45.696;16.076;2022-11-04T13:56:41;19.45;64.16
72288;SHT31;60221;45.696;16.076;2022-11-04T14:01:46;19.32;64.48
72288;SHT31;60221;45.696;16.076;2022-11-04T14:04:28;19.35;64.83
72288;SHT31;60221;45.696;16.076;2022-11-04T14:06:59;19.38;64.89
72288;SHT31;60221;45.696;16.076;2022-11-04T14:09:36;19.21;64.64
72288;SHT31;60221;45.696;16.076;2022-11-04T14:12:16;18.90;65.54
72288;SHT31;60221;45.696;16.076;2022-11-04T14:14:47;18.95;67.81
72288;SHT31;60221;45.696;16.076;2022-11-04T14:20:24;19.80;67.31
72288;SHT31;60221;45.696;16.076;2022-11-04T14:23:00;19.66;66.31
72288;SHT31;60221;45.696;16.076;2022-11-04T14:25:32;19.42;65.93
72288;SHT31;60221;45.696;16.076;2022-11-04T14:33:39;18.84;67.37
72288;SHT31;60221;45.696;16.076;2022-11-04T14:41:50;18.62;68.57
72288;SHT31;60221;45.696;16.076;2022-11-04T14:44:35;18.53;68.40
72288;SHT31;60221;45.696;16.076;2022-11-04T14:47:17;18.49;68.36
72288;SHT31;60221;45.696;16.076;2022-11-04T14:49:52;18.49;69.06
72288;SHT31;60221;45.696;16.076;2022-11-04T14:52:24;18.46;68.86
72288;SHT31;60221;45.696;16.076;2022-11-04T14:55:01;18.43;68.66
72288;SHT31;60221;45.696;16.076;2022-11-04T14:57:27;18.40;68.61
72288;SHT31;60221;45.696;16.076;2022-11-04T14:59:54;18.35;68.60
72288;SHT31;60221;45.696;16.076;2022-11-04T15:02:27;18.32;68.76
72288;SHT31;60221;45.696;16.076;2022-11-04T15:05:00;18.28;68.62
72288;SHT31;60221;45.696;16.076;2022-11-04T15:07:37;18.25;68.58
72288;SHT31;60221;45.696;16.076;2022-11-04T15:10:25;18.22;68.67
72288;SHT31;60221;45.696;16.076;2022-11-04T15:13:00;18.12;68.82
72288;SHT31;60221;45.696;16.076;2022-11-04T15:15:41;18.02;69.28
72288;SHT31;60221;45.696;16.076;2022-11-04T15:18:16;17.92;69.45
72288;SHT31;60221;45.696;16.076;2022-11-04T15:20:52;17.77;69.38
72288;SHT31;60221;45.696;16.076;2022-11-04T15:23:29;17.78;70.65
72288;SHT31;60221;45.696;16.076;2022-11-04T15:25:58;17.92;70.29
72288;SHT31;60221;45.696;16.076;2022-11-04T15:28:28;17.81;69.38
72288;SHT31;60221;45.696;16.076;2022-11-04T15:31:06;17.60;69.47
72288;SHT31;60221;45.696;16.076;2022-11-04T15:33:39;17.44;69.89
72288;SHT31;60221;45.696;16.076;2022-11-04T15:36:17;17.29;70.09
72288;SHT31;60221;45.696;16.076;2022-11-04T15:39:01;17.21;70.50
72288;SHT31;60221;45.696;16.076;2022-11-04T15:41:27;17.05;70.72
72288;SHT31;60221;45.696;16.076;2022-11-04T15:44:20;16.89;70.86
72288;SHT31;60221;45.696;16.076;2022-11-04T15:46:54;16.75;71.23
72288;SHT31;60221;45.696;16.076;2022-11-04T15:49:25;16.56;71.35
72288;SHT31;60221;45.696;16.076;2022-11-04T15:52:06;16.41;71.99
72288;SHT31;60221;45.696;16.076;2022-11-04T15:54:40;16.36;72.91
72288;SHT31;60221;45.696;16.076;2022-11-04T15:57:24;16.37;73.26
72288;SHT31;60221;45.696;16.076;2022-11-04T16:00:05;16.24;73.73
72288;SHT31;60221;45.696;16.076;2022-11-04T16:05:28;16.05;74.91
72288;SHT31;60221;45.696;16.076;2022-11-04T16:08:15;15.96;74.98
72288;SHT31;60221;45.696;16.076;2022-11-04T16:10:41;15.85;75.14
72288;SHT31;60221;45.696;16.076;2022-11-04T16:13:21;15.77;75.51
72288;SHT31;60221;45.696;16.076;2022-11-04T16:18:43;16.29;78.05
72288;SHT31;60221;45.696;16.076;2022-11-04T16:21:33;16.46;76.39
72288;SHT31;60221;45.696;16.076;2022-11-04T16:24:16;16.33;75.56
72288;SHT31;60221;45.696;16.076;2022-11-04T16:26:45;16.09;75.12
72288;SHT31;60221;45.696;16.076;2022-11-04T16:32:07;15.86;75.70
72288;SHT31;60221;45.696;16.076;2022-11-04T16:34:34;15.77;75.87
72288;SHT31;60221;45.696;16.076;2022-11-04T16:37:00;15.74;76.50
72288;SHT31;60221;45.696;16.076;2022-11-04T16:39:27;15.85;77.27
72288;SHT31;60221;45.696;16.076;2022-11-04T16:41:53;15.98;77.60
72288;SHT31;60221;45.696;16.076;2022-11-04T16:44:22;16.06;76.23
72288;SHT31;60221;45.696;16.076;2022-11-04T16:46:49;16.15;77.04
72288;SHT31;60221;45.696;16.076;2022-11-04T16:49:18;16.19;77.09
72288;SHT31;60221;45.696;16.076;2022-11-04T16:51:49;16.22;76.50
72288;SHT31;60221;45.696;16.076;2022-11-04T16:54:16;16.09;75.68
72288;SHT31;60221;45.696;16.076;2022-11-04T16:56:42;15.92;75.74
72288;SHT31;60221;45.696;16.076;2022-11-04T16:59:11;15.75;75.47
72288;SHT31;60221;45.696;16.076;2022-11-04T17:01:37;15.61;75.98
72288;SHT31;60221;45.696;16.076;2022-11-04T17:04:07;15.74;76.74
72288;SHT31;60221;45.696;16.076;2022-11-04T17:06:34;15.54;76.08
72288;SHT31;60221;45.696;16.076;2022-11-04T17:09:02;15.38;75.98
72288;SHT31;60221;45.696;16.076;2022-11-04T17:11:28;15.25;76.41
72288;SHT31;60221;45.696;16.076;2022-11-04T17:13:57;15.20;76.85
72288;SHT31;60221;45.696;16.076;2022-11-04T17:16:24;15.34;77.57
72288;SHT31;60221;45.696;16.076;2022-11-04T17:18:50;15.47;77.76
72288;SHT31;60221;45.696;16.076;2022-11-04T17:21:19;15.56;77.92
72288;SHT31;60221;45.696;16.076;2022-11-04T17:23:45;15.64;77.78
72288;SHT31;60221;45.696;16.076;2022-11-04T17:26:12;15.68;77.71
72288;SHT31;60221;45.696;16.076;2022-11-04T17:28:38;15.74;77.36
72288;SHT31;60221;45.696;16.076;2022-11-04T17:31:05;16.02;78.39
72288;SHT31;60221;45.696;16.076;2022-11-04T17:33:31;16.30;77.77